createdAt,value
2022-10-22T00:01:08.725Z,98762.40
2022-10-22T00:03:39.322Z,98755.00
2022-10-22T00:06:07.523Z,98750.00
2022-10-22T00:08:35.210Z,98750.80
2022-10-22T00:11:23.129Z,98744.20
2022-10-22T00:13:51.241Z,98736.60
2022-10-22T00:16:18.880Z,98734.40
2022-10-22T00:18:46.565Z,98734.40
2022-10-22T00:21:14.198Z,98734.60
2022-10-22T00:23:43.539Z,98744.60
2022-10-22T00:26:12.135Z,98755.80
2022-10-22T00:28:39.729Z,98749.00
2022-10-22T00:31:07.694Z,98746.80
2022-10-22T00:33:35.266Z,98754.40
2022-10-22T00:36:02.881Z,98753.80
2022-10-22T00:38:30.548Z,98749.80
2022-10-22T00:40:58.159Z,98755.80
2022-10-22T00:43:27.700Z,98753.60
2022-10-22T00:45:55.683Z,98754.20
2022-10-22T00:48:29.315Z,98758.40
2022-10-22T00:51:00.956Z,98753.40
2022-10-22T00:53:41.514Z,98754.80
2022-10-22T00:56:10.982Z,98753.20
2022-10-22T00:58:46.275Z,98751.80
2022-10-22T01:01:20.154Z,98751.40
2022-10-22T01:03:48.971Z,98745.40
2022-10-22T01:06:34.985Z,98746.00
2022-10-22T01:09:41.057Z,98742.40
2022-10-22T01:12:43.796Z,98748.80
2022-10-22T01:16:11.104Z,98742.40
2022-10-22T01:18:49.703Z,98732.20
2022-10-22T01:21:32.224Z,98734.60
2022-10-22T01:24:28.149Z,98732.80
2022-10-22T01:27:51.708Z,98731.00
2022-10-22T01:30:20.646Z,98730.40
2022-10-22T01:33:05.360Z,98724.40
2022-10-22T01:35:39.557Z,98727.80
2022-10-22T01:38:14.095Z,98732.80
2022-10-22T01:40:43.085Z,98729.40
2022-10-22T01:43:12.102Z,98730.20
2022-10-22T01:46:02.326Z,98732.40
2022-10-22T01:48:38.875Z,98722.40
2022-10-22T01:51:36.513Z,98717.00
2022-10-22T01:54:29.798Z,98721.40
2022-10-22T01:57:28.624Z,98720.40
2022-10-22T02:00:06.477Z,98713.80
2022-10-22T02:02:34.059Z,98714.00
2022-10-22T02:05:25.359Z,98713.00
2022-10-22T02:08:02.411Z,98707.00
2022-10-22T02:10:31.344Z,98710.40
2022-10-22T02:13:02.141Z,98713.20
2022-10-22T02:15:33.163Z,98715.80
2022-10-22T02:18:01.787Z,98718.60
2022-10-22T02:20:34.598Z,98710.20
2022-10-22T02:23:03.853Z,98716.20
2022-10-22T02:25:37.149Z,98714.40
2022-10-22T02:28:26.622Z,98705.60
2022-10-22T02:31:01.732Z,98705.20
2022-10-22T02:33:36.685Z,98706.00
2022-10-22T02:36:06.594Z,98706.20
2022-10-22T02:38:36.207Z,98697.60
2022-10-22T02:41:04.272Z,98700.40
2022-10-22T02:43:42.414Z,98705.60
2022-10-22T02:46:11.535Z,98710.40
2022-10-22T02:48:39.063Z,98720.60
2022-10-22T02:51:07.125Z,98736.00
2022-10-22T02:53:34.685Z,98744.20
2022-10-22T02:56:02.271Z,98743.60
2022-10-22T02:58:29.798Z,98741.60
2022-10-22T03:00:57.378Z,98743.20
2022-10-22T03:03:25.060Z,98747.20
2022-10-22T03:05:52.605Z,98746.80
2022-10-22T03:08:20.567Z,98737.40
2022-10-22T03:10:48.169Z,98730.00
2022-10-22T03:13:15.764Z,98727.40
2022-10-22T03:15:43.423Z,98734.60
2022-10-22T03:18:11.270Z,98732.40
2022-10-22T03:20:38.874Z,98715.80
2022-10-22T03:23:06.674Z,98711.00
2022-10-22T03:25:35.730Z,98715.60
2022-10-22T03:28:09.330Z,98714.00
2022-10-22T03:30:36.866Z,98718.60
2022-10-22T03:33:04.569Z,98727.20
2022-10-22T03:35:34.234Z,98729.80
2022-10-22T03:38:01.850Z,98730.40
2022-10-22T03:40:29.549Z,98738.80
2022-10-22T03:42:58.748Z,98732.00
2022-10-22T03:45:26.455Z,98733.60
2022-10-22T03:47:54.095Z,98731.00
2022-10-22T03:50:21.640Z,98730.00
2022-10-22T03:52:49.224Z,98730.80
2022-10-22T03:55:17.013Z,98736.80
2022-10-22T03:57:44.577Z,98730.40
2022-10-22T04:00:12.687Z,98735.80
2022-10-22T04:02:40.469Z,98730.40
2022-10-22T04:05:08.473Z,98721.80
2022-10-22T04:07:36.183Z,98705.20
2022-10-22T04:10:04.462Z,98705.80
2022-10-22T04:12:32.105Z,98709.80
2022-10-22T04:14:59.797Z,98712.00
2022-10-22T04:17:35.506Z,98700.60
2022-10-22T04:20:05.361Z,98694.80
2022-10-22T04:22:37.081Z,98699.20
2022-10-22T04:25:05.604Z,98698.00
2022-10-22T04:27:34.898Z,98695.00
2022-10-22T04:30:04.645Z,98695.40
2022-10-22T04:32:32.395Z,98689.20
2022-10-22T04:34:59.940Z,98692.20
2022-10-22T04:37:27.633Z,98693.20
2022-10-22T04:39:58.030Z,98686.00
2022-10-22T04:42:26.140Z,98696.20
2022-10-22T04:44:53.684Z,98688.80
2022-10-22T04:47:21.773Z,98687.40
2022-10-22T04:49:49.283Z,98684.40
2022-10-22T04:52:16.933Z,98685.60
2022-10-22T04:54:44.662Z,98681.60
2022-10-22T04:57:12.240Z,98681.00
2022-10-22T04:59:40.570Z,98680.80
2022-10-22T05:02:08.229Z,98672.40
2022-10-22T05:04:35.863Z,98682.40
2022-10-22T05:07:03.620Z,98684.40
2022-10-22T05:09:31.318Z,98697.00
2022-10-22T05:11:59.311Z,98703.80
2022-10-22T05:14:27.384Z,98697.00
2022-10-22T05:16:55.193Z,98686.40
2022-10-22T05:19:29.869Z,98687.20
2022-10-22T05:22:00.985Z,98690.60
2022-10-22T05:24:31.187Z,98675.20
2022-10-22T05:27:00.443Z,98679.40
2022-10-22T05:29:28.212Z,98693.00
2022-10-22T05:31:56.412Z,98707.40
2022-10-22T05:34:24.069Z,98722.40
2022-10-22T05:36:51.591Z,98720.20
2022-10-22T05:39:19.407Z,98714.20
2022-10-22T05:41:47.041Z,98712.40
2022-10-22T05:44:17.301Z,98717.20
2022-10-22T05:46:45.322Z,98711.40
2022-10-22T05:49:16.893Z,98712.00
2022-10-22T05:51:44.598Z,98709.00
2022-10-22T05:54:22.257Z,98706.20
2022-10-22T05:56:49.809Z,98699.80
2022-10-22T05:59:17.414Z,98697.40
2022-10-22T06:01:45.533Z,98710.40
2022-10-22T06:04:13.608Z,98720.60
2022-10-22T06:06:46.734Z,98725.40
2022-10-22T06:09:40.362Z,98727.60
2022-10-22T06:12:10.900Z,98734.60
2022-10-22T06:14:38.440Z,98733.40
2022-10-22T06:17:06.309Z,98732.00
2022-10-22T06:19:34.027Z,98742.80
2022-10-22T06:22:01.662Z,98756.80
2022-10-22T06:24:29.249Z,98762.80
2022-10-22T06:26:56.787Z,98759.20
2022-10-22T06:29:24.706Z,98773.20
2022-10-22T06:31:52.310Z,98774.80
2022-10-22T06:34:20.075Z,98784.20
2022-10-22T06:36:48.182Z,98780.40
2022-10-22T06:39:18.014Z,98795.80
2022-10-22T06:41:46.978Z,98798.20
2022-10-22T06:44:17.709Z,98792.40
2022-10-22T06:46:45.728Z,98801.60
2022-10-22T06:49:15.587Z,98800.20
2022-10-22T06:51:43.632Z,98788.20
2022-10-22T06:54:11.931Z,98795.20
2022-10-22T06:56:39.521Z,98799.00
2022-10-22T06:59:07.143Z,98784.60
2022-10-22T07:01:36.495Z,98778.40
2022-10-22T07:04:05.756Z,98772.40
2022-10-22T07:06:33.364Z,98779.60
2022-10-22T07:09:01.189Z,98777.20
2022-10-22T07:11:42.876Z,98766.80
2022-10-22T07:14:11.716Z,98768.00
2022-10-22T07:16:42.186Z,98771.20
2022-10-22T07:19:09.743Z,98753.20
2022-10-22T07:21:37.900Z,98750.00
2022-10-22T07:24:05.932Z,98743.40
2022-10-22T07:26:33.614Z,98737.20
2022-10-22T07:29:01.845Z,98753.00
2022-10-22T07:31:29.821Z,98759.60
2022-10-22T07:33:58.221Z,98761.80
2022-10-22T07:36:25.925Z,98767.20
2022-10-22T07:38:57.377Z,98767.20
2022-10-22T07:41:26.808Z,98773.20
2022-10-22T07:43:55.292Z,98781.00
2022-10-22T07:46:23.644Z,98796.80
2022-10-22T07:48:51.858Z,98796.20
2022-10-22T07:51:19.610Z,98776.60
2022-10-22T07:53:47.254Z,98773.60
2022-10-22T07:56:15.809Z,98760.20
2022-10-22T07:58:43.472Z,98778.20
2022-10-22T08:01:11.400Z,98798.00
2022-10-22T08:03:38.998Z,98783.00
2022-10-22T08:06:07.100Z,98780.40
2022-10-22T08:08:35.028Z,98782.40
2022-10-22T08:11:02.837Z,98801.60
2022-10-22T08:13:30.730Z,98805.40
2022-10-22T08:16:02.341Z,98802.80
2022-10-22T08:18:30.392Z,98803.00
2022-10-22T08:20:58.647Z,98799.40
2022-10-22T08:23:28.638Z,98793.60
2022-10-22T08:25:57.502Z,98786.20
2022-10-22T08:28:28.731Z,98788.80
2022-10-22T08:30:56.859Z,98801.00
2022-10-22T08:33:24.931Z,98788.20
2022-10-22T08:35:53.186Z,98796.20
2022-10-22T08:38:21.260Z,98793.80
2022-10-22T08:40:54.695Z,98796.40
2022-10-22T08:43:42.082Z,98797.80
2022-10-22T08:46:31.422Z,98802.00
2022-10-22T08:49:02.746Z,98793.80
2022-10-22T08:51:35.813Z,98797.40
2022-10-22T08:54:13.274Z,98793.60
2022-10-22T08:56:57.136Z,98798.40
2022-10-22T08:59:44.820Z,98796.60
2022-10-22T09:02:56.750Z,98793.80
2022-10-22T09:05:59.110Z,98801.00
2022-10-22T09:08:26.724Z,98805.80
2022-10-22T09:11:17.770Z,98802.60
2022-10-22T09:13:46.597Z,98800.40
2022-10-22T09:16:27.065Z,98808.60
2022-10-22T09:19:29.749Z,98822.40
2022-10-22T09:22:23.437Z,98827.80
2022-10-22T09:25:30.759Z,98825.80
2022-10-22T09:27:58.796Z,98833.80
2022-10-22T09:30:31.442Z,98833.60
2022-10-22T09:33:06.929Z,98838.00
2022-10-22T09:35:45.580Z,98831.40
2022-10-22T09:38:16.611Z,98835.20
2022-10-22T09:40:51.124Z,98837.20
2022-10-22T09:43:19.732Z,98838.40
2022-10-22T09:45:55.085Z,98837.20
2022-10-22T09:48:34.635Z,98835.80
2022-10-22T09:51:15.104Z,98831.60
2022-10-22T09:53:47.346Z,98834.80
2022-10-22T09:56:35.580Z,98833.80
2022-10-22T09:59:04.134Z,98834.40
2022-10-22T10:01:35.341Z,98829.00
2022-10-22T10:04:13.180Z,98825.60
2022-10-22T10:06:44.695Z,98818.40
2022-10-22T10:09:25.830Z,98818.60
2022-10-22T10:12:06.912Z,98822.60
2022-10-22T10:15:16.673Z,98829.00
2022-10-22T10:18:25.278Z,98824.20
2022-10-22T10:21:20.667Z,98821.80
2022-10-22T10:24:18.654Z,98819.80
2022-10-22T10:27:26.776Z,98817.80
2022-10-22T10:30:16.667Z,98815.60
2022-10-22T10:33:02.464Z,98825.60
2022-10-22T10:36:03.779Z,98825.20
2022-10-22T10:38:56.445Z,98824.60
2022-10-22T10:42:12.065Z,98822.80
2022-10-22T10:45:02.762Z,98816.60
2022-10-22T10:47:42.762Z,98826.80
2022-10-22T10:50:52.889Z,98825.20
2022-10-22T10:53:43.889Z,98825.00
2022-10-22T10:56:50.595Z,98821.80
2022-10-22T10:59:52.308Z,98820.40
2022-10-22T11:03:03.372Z,98817.60
2022-10-22T11:05:54.422Z,98803.20
2022-10-22T11:08:34.232Z,98810.00
2022-10-22T11:11:52.453Z,98808.00
2022-10-22T11:14:32.468Z,98808.60
2022-10-22T11:17:18.139Z,98805.20
2022-10-22T11:20:06.293Z,98802.40
2022-10-22T11:23:13.179Z,98803.00
2022-10-22T11:25:44.438Z,98806.60
2022-10-22T11:28:50.862Z,98803.80
2022-10-22T11:31:18.842Z,98808.00
2022-10-22T11:34:32.156Z,98800.60
2022-10-22T11:37:00.854Z,98800.40
2022-10-22T11:39:42.996Z,98787.00
2022-10-22T11:42:20.432Z,98780.40
2022-10-22T11:45:28.574Z,98789.40
2022-10-22T11:48:11.901Z,98790.40
2022-10-22T11:51:00.783Z,98788.20
2022-10-22T11:53:34.596Z,98795.60
2022-10-22T11:56:10.051Z,98792.60
2022-10-22T11:58:39.325Z,98792.00
2022-10-22T12:01:10.014Z,98784.40
2022-10-22T12:03:58.833Z,98783.00
2022-10-22T12:06:28.954Z,98783.00
2022-10-22T12:09:04.901Z,98786.00
2022-10-22T12:11:50.708Z,98779.60
2022-10-22T12:14:37.954Z,98782.40
2022-10-22T12:17:11.842Z,98778.20
2022-10-22T12:19:44.004Z,98775.80
2022-10-22T12:22:23.193Z,98781.40
2022-10-22T12:25:00.792Z,98782.40
2022-10-22T12:27:38.446Z,98783.80
2022-10-22T12:30:23.710Z,98782.20
2022-10-22T12:32:55.419Z,98774.60
2022-10-22T12:35:28.994Z,98769.00
2022-10-22T12:38:25.843Z,98772.20
2022-10-22T12:40:56.983Z,98777.60
2022-10-22T12:43:30.394Z,98777.00
2022-10-22T12:45:59.795Z,98777.00
2022-10-22T12:48:34.383Z,98771.20
2022-10-22T12:51:07.665Z,98779.20
2022-10-22T12:53:43.001Z,98780.80
2022-10-22T12:56:15.985Z,98775.40
2022-10-22T12:58:48.539Z,98771.40
2022-10-22T13:01:18.549Z,98769.40
2022-10-22T13:03:51.614Z,98766.60
2022-10-22T13:06:19.114Z,98772.80
2022-10-22T13:09:06.939Z,98774.20
2022-10-22T13:12:04.810Z,98773.80
2022-10-22T13:14:37.514Z,98779.20
2022-10-22T13:17:38.328Z,98780.60
2022-10-22T13:20:22.797Z,98781.80
2022-10-22T13:23:03.243Z,98777.80
2022-10-22T13:25:39.525Z,98777.00
2022-10-22T13:28:06.991Z,98781.60
2022-10-22T13:30:38.236Z,98780.60
2022-10-22T13:33:31.227Z,98784.80
2022-10-22T13:35:58.984Z,98789.80
2022-10-22T13:38:28.721Z,98789.60
2022-10-22T13:40:56.909Z,98795.00
2022-10-22T13:43:25.433Z,98792.60
2022-10-22T13:45:57.759Z,98789.80
2022-10-22T13:48:30.044Z,98790.60
2022-10-22T13:50:57.925Z,98792.20
2022-10-22T13:53:28.486Z,98785.20
2022-10-22T13:55:56.212Z,98793.60
2022-10-22T13:58:25.130Z,98793.40
2022-10-22T14:00:57.336Z,98792.20
2022-10-22T14:03:32.257Z,98790.00
2022-10-22T14:06:00.811Z,98800.00
2022-10-22T14:08:29.294Z,98799.60
2022-10-22T14:10:57.245Z,98798.60
2022-10-22T14:13:24.886Z,98803.80
2022-10-22T14:15:52.888Z,98804.60
2022-10-22T14:18:28.940Z,98806.40
2022-10-22T14:21:00.696Z,98810.20
2022-10-22T14:23:30.738Z,98804.20
2022-10-22T14:25:59.959Z,98795.60
2022-10-22T14:28:40.945Z,98798.80
2022-10-22T14:31:14.697Z,98794.60
2022-10-22T14:33:42.600Z,98795.40
2022-10-22T14:36:15.238Z,98792.20
2022-10-22T14:38:45.876Z,98786.80
2022-10-22T14:41:29.113Z,98787.40
2022-10-22T14:43:56.691Z,98793.20
2022-10-22T14:46:24.214Z,98792.80
2022-10-22T14:48:51.996Z,98794.40
2022-10-22T14:51:21.681Z,98787.80
2022-10-22T14:53:49.705Z,98789.00
2022-10-22T14:56:22.553Z,98787.80
2022-10-22T14:58:50.855Z,98793.20
2022-10-22T15:01:18.423Z,98796.80
2022-10-22T15:03:46.082Z,98800.00
2022-10-22T15:06:13.820Z,98800.80
2022-10-22T15:08:41.509Z,98798.00
2022-10-22T15:11:12.732Z,98800.20
2022-10-22T15:13:42.033Z,98793.20
2022-10-22T15:16:14.656Z,98796.40
2022-10-22T15:18:42.422Z,98790.60
2022-10-22T15:21:19.477Z,98791.80
2022-10-22T15:23:48.107Z,98797.00
2022-10-22T15:26:16.258Z,98794.00
2022-10-22T15:28:44.376Z,98799.60
2022-10-22T15:31:15.201Z,98804.80
2022-10-22T15:33:43.563Z,98803.20
2022-10-22T15:36:16.108Z,98806.20
2022-10-22T15:38:44.030Z,98816.00
2022-10-22T15:41:13.575Z,98820.40
2022-10-22T15:43:41.341Z,98820.80
2022-10-22T15:46:19.500Z,98825.80
2022-10-22T15:48:47.074Z,98831.60
2022-10-22T15:51:18.306Z,98832.60
2022-10-22T15:53:58.757Z,98829.00
2022-10-22T15:56:30.118Z,98829.80
2022-10-22T15:59:04.096Z,98829.00
2022-10-22T16:01:35.347Z,98836.00
2022-10-22T16:04:04.711Z,98844.60
2022-10-22T16:06:44.357Z,98841.80
2022-10-22T16:09:16.964Z,98848.40
2022-10-22T16:11:45.927Z,98852.40
2022-10-22T16:14:17.391Z,98851.80
2022-10-22T16:16:49.853Z,98857.40
2022-10-22T16:19:20.238Z,98859.20
2022-10-22T16:21:54.405Z,98863.60
2022-10-22T16:24:23.196Z,98870.00
2022-10-22T16:26:53.238Z,98870.60
2022-10-22T16:29:21.095Z,98879.60
2022-10-22T16:31:48.745Z,98877.00
2022-10-22T16:34:16.436Z,98884.20
2022-10-22T16:36:44.414Z,98888.60
2022-10-22T16:39:12.492Z,98887.80
2022-10-22T16:41:40.502Z,98888.40
2022-10-22T16:44:09.938Z,98897.40
2022-10-22T16:46:40.814Z,98897.80
2022-10-22T16:49:08.617Z,98897.80
2022-10-22T16:51:36.585Z,98904.00
2022-10-22T16:54:06.852Z,98905.00
2022-10-22T16:56:37.568Z,98908.20
2022-10-22T16:59:06.841Z,98912.20
2022-10-22T17:01:39.528Z,98912.40
2022-10-22T17:04:09.410Z,98923.60
2022-10-22T17:06:37.169Z,98924.80
2022-10-22T17:09:05.304Z,98928.20
2022-10-22T17:11:36.414Z,98929.00
2022-10-22T17:14:06.894Z,98934.40
2022-10-22T17:16:34.500Z,98933.80
2022-10-22T17:19:04.416Z,98933.60
2022-10-22T17:21:32.138Z,98932.20
2022-10-22T17:23:59.915Z,98933.40
2022-10-22T17:26:27.934Z,98937.00
2022-10-22T17:28:55.761Z,98942.20
2022-10-22T17:31:28.069Z,98939.80
2022-10-22T17:33:56.807Z,98944.00
2022-10-22T17:36:27.517Z,98942.80
2022-10-22T17:39:00.405Z,98941.60
2022-10-22T17:41:33.085Z,98943.40
2022-10-22T17:44:04.058Z,98944.00
2022-10-22T17:46:32.807Z,98944.00
2022-10-22T17:49:07.012Z,98936.40
2022-10-22T17:51:34.719Z,98929.60
2022-10-22T17:54:03.557Z,98925.80
2022-10-22T17:56:33.696Z,98926.40
2022-10-22T17:59:01.938Z,98931.80
2022-10-22T18:01:35.304Z,98938.60
2022-10-22T18:04:07.778Z,98947.20
2022-10-22T18:06:36.105Z,98952.20
2022-10-22T18:09:06.829Z,98956.60
2022-10-22T18:11:36.957Z,98951.80
2022-10-22T18:14:05.257Z,98953.80
2022-10-22T18:16:32.911Z,98952.00
2022-10-22T18:19:00.903Z,98968.00
2022-10-22T18:21:30.202Z,98978.40
2022-10-22T18:23:59.541Z,98973.80
2022-10-22T18:26:27.451Z,98981.40
2022-10-22T18:28:57.632Z,98979.40
2022-10-22T18:31:27.914Z,98981.40
2022-10-22T18:33:57.122Z,98986.20
2022-10-22T18:36:27.469Z,98983.20
2022-10-22T18:39:01.052Z,98986.20
2022-10-22T18:41:31.492Z,98985.60
2022-10-22T18:44:03.202Z,98991.40
2022-10-22T18:46:39.550Z,98991.00
2022-10-22T18:49:07.893Z,98992.00
2022-10-22T18:51:36.357Z,98994.40
2022-10-22T18:54:18.261Z,99001.40
2022-10-22T18:56:50.189Z,99003.00
2022-10-22T18:59:22.178Z,99006.40
2022-10-22T19:01:53.336Z,99012.20
2022-10-22T19:04:21.139Z,99015.20
2022-10-22T19:06:49.224Z,99016.20
2022-10-22T19:09:17.439Z,99016.60
2022-10-22T19:11:46.371Z,99022.60
2022-10-22T19:14:15.050Z,99029.40
2022-10-22T19:16:42.884Z,99027.00
2022-10-22T19:19:16.577Z,99027.40
2022-10-22T19:21:44.778Z,99031.40
2022-10-22T19:24:15.913Z,99033.60
2022-10-22T19:26:44.796Z,99035.00
2022-10-22T19:29:16.977Z,99035.80
2022-10-22T19:31:45.107Z,99036.40
2022-10-22T19:34:13.602Z,99038.80
2022-10-22T19:36:41.189Z,99039.40
2022-10-22T19:39:09.072Z,99046.00
2022-10-22T19:41:37.171Z,99041.60
2022-10-22T19:44:04.896Z,99045.60
2022-10-22T19:46:32.727Z,99048.20
2022-10-22T19:49:03.357Z,99051.00
2022-10-22T19:51:33.893Z,99054.80
2022-10-22T19:54:06.402Z,99049.00
2022-10-22T19:56:37.953Z,99056.40
2022-10-22T19:59:06.036Z,99056.00
2022-10-22T20:01:33.770Z,99061.20
2022-10-22T20:04:01.658Z,99065.20
2022-10-22T20:06:30.746Z,99068.40
2022-10-22T20:08:59.343Z,99064.40
2022-10-22T20:11:29.630Z,99065.80
2022-10-22T20:13:58.596Z,99062.80
2022-10-22T20:16:29.991Z,99066.20
2022-10-22T20:19:04.121Z,99072.00
2022-10-22T20:21:33.113Z,99073.60
2022-10-22T20:24:01.527Z,99073.60
2022-10-22T20:26:29.586Z,99076.40
2022-10-22T20:28:58.863Z,99077.80
2022-10-22T20:31:29.617Z,99077.80
2022-10-22T20:34:01.104Z,99082.60
2022-10-22T20:36:31.031Z,99084.20
2022-10-22T20:39:05.786Z,99081.20
2022-10-22T20:41:35.586Z,99082.20
2022-10-22T20:44:03.365Z,99081.40
2022-10-22T20:46:34.253Z,99083.60
2022-10-22T20:49:07.615Z,99084.40
2022-10-22T20:51:37.000Z,99087.20
2022-10-22T20:54:07.445Z,99087.80
2022-10-22T20:56:38.629Z,99087.40
2022-10-22T20:59:10.650Z,99090.80
2022-10-22T21:01:43.302Z,99097.40
2022-10-22T21:04:11.060Z,99105.40
2022-10-22T21:06:41.462Z,99106.20
2022-10-22T21:09:12.630Z,99105.80
2022-10-22T21:11:42.777Z,99107.60
2022-10-22T21:14:12.829Z,99105.80
2022-10-22T21:16:46.607Z,99110.20
2022-10-22T21:19:14.159Z,99108.40
2022-10-22T21:21:42.072Z,99104.20
2022-10-22T21:24:10.598Z,99110.40
2022-10-22T21:26:41.148Z,99111.20
2022-10-22T21:29:12.179Z,99117.40
2022-10-22T21:31:40.465Z,99115.00
2022-10-22T21:34:08.245Z,99117.00
2022-10-22T21:36:35.854Z,99121.20
2022-10-22T21:39:03.777Z,99125.80
2022-10-22T21:41:31.356Z,99125.60
2022-10-22T21:43:59.469Z,99123.60
2022-10-22T21:46:28.557Z,99119.40
2022-10-22T21:49:01.783Z,99113.60
2022-10-22T21:51:32.518Z,99116.40
2022-10-22T21:54:00.487Z,99118.00
2022-10-22T21:56:32.785Z,99121.60
2022-10-22T21:59:02.762Z,99120.80
2022-10-22T22:01:30.734Z,99117.60
2022-10-22T22:03:59.220Z,99122.40
2022-10-22T22:06:33.116Z,99122.00
2022-10-22T22:09:03.863Z,99124.80
2022-10-22T22:11:32.478Z,99123.40
2022-10-22T22:14:00.279Z,99126.00
2022-10-22T22:16:32.481Z,99120.80
2022-10-22T22:21:39.973Z,99137.40
2022-10-22T22:24:11.338Z,99139.80
2022-10-22T22:26:39.699Z,99139.40
2022-10-22T22:29:07.277Z,99133.80
2022-10-22T22:31:35.637Z,99137.80
2022-10-22T22:34:13.336Z,99132.60
2022-10-22T22:36:45.860Z,99137.60
2022-10-22T22:39:17.374Z,99148.60
2022-10-22T22:41:45.900Z,99145.80
2022-10-22T22:44:14.201Z,99149.80
2022-10-22T22:46:42.903Z,99149.00
2022-10-22T22:49:12.821Z,99146.20
2022-10-22T22:51:40.927Z,99151.00
2022-10-22T22:54:09.970Z,99155.40
2022-10-22T22:56:38.435Z,99155.20
2022-10-22T22:59:06.495Z,99149.40
2022-10-22T23:01:37.156Z,99153.60
2022-10-22T23:04:07.696Z,99158.20
2022-10-22T23:06:37.828Z,99157.00
2022-10-22T23:09:10.091Z,99161.00
2022-10-22T23:11:39.897Z,99165.00
2022-10-22T23:14:12.288Z,99168.60
2022-10-22T23:16:46.057Z,99165.40
2022-10-22T23:19:17.424Z,99168.60
2022-10-22T23:21:48.942Z,99172.40
2022-10-22T23:24:20.639Z,99169.00
2022-10-22T23:26:51.497Z,99172.60
2022-10-22T23:29:28.898Z,99176.40
2022-10-22T23:32:02.056Z,99176.80
2022-10-22T23:34:31.225Z,99185.60
2022-10-22T23:36:59.933Z,99183.80
2022-10-22T23:39:29.532Z,99190.80
2022-10-22T23:41:58.965Z,99191.00
2022-10-22T23:44:26.639Z,99196.60
2022-10-22T23:46:55.263Z,99195.60
2022-10-22T23:49:23.077Z,99194.60
2022-10-22T23:51:50.658Z,99202.80
2022-10-22T23:54:18.903Z,99208.60
2022-10-22T23:56:46.696Z,99211.80
